Time;durP1;ratioP1;P1;durP2;ratioP2;P2;SDS_P1;SDS_P2;PMS_P1;PMS_P2;Temp;Humidity;BMP_temperature;BMP_pressure;BME280_temperature;BME280_humidity;BME280_pressure;Samples;Min_cycle;Max_cycle;Signal;HPM_P1;HPM_P2
2022/05/20 00:02:03;;;;;;;12.38;9.27;;;16.60;99.90;;;;;;5059780;28;20032;-83
2022/05/20 00:04:32;;;;;;;9.93;8.43;;;16.60;99.90;;;;;;5059772;28;20075;-83
2022/05/20 00:06:57;;;;;;;12.23;8.23;;;16.60;99.90;;;;;;5059258;28;20481;-83
2022/05/20 00:09:23;;;;;;;11.75;8.90;;;16.60;99.90;;;;;;5061288;28;20043;-84
2022/05/20 00:11:51;;;;;;;11.00;9.40;;;16.60;99.90;;;;;;5060950;28;20056;-83
2022/05/20 00:14:17;;;;;;;13.73;9.57;;;16.60;99.90;;;;;;5059671;28;20048;-84
2022/05/20 00:16:44;;;;;;;14.30;10.23;;;16.70;99.90;;;;;;5060468;28;20029;-83
2022/05/20 00:19:09;;;;;;;15.02;11.18;;;16.70;99.90;;;;;;5060244;28;20029;-84
2022/05/20 00:21:35;;;;;;;13.15;10.88;;;16.70;99.90;;;;;;5059344;28;20035;-84
2022/05/20 00:24:02;;;;;;;17.40;11.88;;;16.80;99.90;;;;;;5061055;28;20040;-83
2022/05/20 00:26:28;;;;;;;13.88;10.73;;;16.80;99.90;;;;;;5060809;28;20099;-83
2022/05/20 00:28:55;;;;;;;19.33;11.82;;;16.80;99.90;;;;;;5060994;28;20509;-83
2022/05/20 00:31:25;;;;;;;17.90;12.23;;;16.90;99.90;;;;;;5061078;28;20107;-83
2022/05/20 00:33:51;;;;;;;16.42;12.52;;;16.90;99.90;;;;;;5062106;28;20021;-84
2022/05/20 00:36:17;;;;;;;20.13;13.38;;;16.90;99.90;;;;;;5059597;28;20142;-83
2022/05/20 00:38:43;;;;;;;15.93;14.20;;;17.00;99.90;;;;;;5060756;28;20017;-83
2022/05/20 00:41:09;;;;;;;19.50;15.55;;;17.00;99.90;;;;;;5059944;28;20017;-83
2022/05/20 00:43:41;;;;;;;18.92;15.60;;;17.00;99.90;;;;;;5060690;28;20037;-83
2022/05/20 00:46:10;;;;;;;21.35;17.33;;;17.00;99.90;;;;;;5060759;28;20028;-84
2022/05/20 00:48:37;;;;;;;22.60;19.17;;;17.00;99.90;;;;;;5061629;28;20053;-83
2022/05/20 00:51:26;;;;;;;28.90;20.30;;;16.90;99.90;;;;;;5058624;28;20032;-83
2022/05/20 00:53:54;;;;;;;32.13;22.02;;;17.00;99.90;;;;;;5060239;28;20033;-83
2022/05/20 00:56:24;;;;;;;25.33;20.45;;;17.00;99.90;;;;;;5060284;28;20021;-83
2022/05/20 00:58:53;;;;;;;30.75;22.08;;;16.90;99.90;;;;;;5060268;28;20025;-83
2022/05/20 01:01:21;;;;;;;32.17;22.23;;;16.90;99.90;;;;;;5059382;28;20052;-84
2022/05/20 01:03:48;;;;;;;22.67;19.55;;;16.90;99.90;;;;;;5061237;28;20025;-83
2022/05/20 01:06:14;;;;;;;29.52;20.98;;;16.90;99.90;;;;;;5060920;28;20029;-83
2022/05/20 01:08:41;;;;;;;26.92;23.10;;;17.00;99.90;;;;;;5061086;28;20075;-83
2022/05/20 01:11:06;;;;;;;32.45;25.00;;;16.90;99.90;;;;;;5061210;28;20055;-83
2022/05/20 01:13:33;;;;;;;28.95;23.17;;;16.90;99.90;;;;;;5063153;28;20128;-83
2022/05/20 01:16:04;;;;;;;31.42;23.38;;;16.90;99.90;;;;;;5063657;28;20036;-84
2022/05/20 01:18:34;;;;;;;30.55;25.45;;;16.90;99.90;;;;;;5064450;28;20022;-84
2022/05/20 01:21:06;;;;;;;37.35;24.60;;;16.90;99.90;;;;;;5064881;28;20052;-83
2022/05/20 01:23:34;;;;;;;29.75;26.40;;;17.00;99.90;;;;;;5063902;28;20032;-82
2022/05/20 01:26:00;;;;;;;30.88;24.90;;;17.00;99.90;;;;;;5064324;28;20024;-83
2022/05/20 01:28:28;;;;;;;32.40;25.35;;;17.00;99.90;;;;;;5063731;28;20025;-83
2022/05/20 01:31:02;;;;;;;26.05;21.90;;;17.00;99.90;;;;;;5063959;28;20074;-83
2022/05/20 01:33:35;;;;;;;30.15;23.50;;;17.10;99.90;;;;;;5064889;28;20044;-83
2022/05/20 01:36:04;;;;;;;33.60;25.83;;;17.10;99.90;;;;;;5065189;28;20343;-84
2022/05/20 01:38:32;;;;;;;33.88;27.48;;;17.10;99.90;;;;;;5064433;28;20392;-83
2022/05/20 01:41:10;;;;;;;38.28;26.73;;;17.10;99.90;;;;;;5061803;28;20426;-84
2022/05/20 01:43:46;;;;;;;36.38;27.58;;;17.00;99.90;;;;;;5061850;28;20025;-82
2022/05/20 01:46:18;;;;;;;37.20;28.75;;;17.00;99.90;;;;;;5061442;28;20045;-83
2022/05/20 01:48:56;;;;;;;37.42;29.63;;;16.90;99.90;;;;;;5062621;28;20171;-83
2022/05/20 01:51:27;;;;;;;34.17;27.77;;;16.90;99.90;;;;;;5061824;28;20025;-83
2022/05/20 01:53:58;;;;;;;30.50;25.60;;;16.90;99.90;;;;;;5063243;28;20033;-83
2022/05/20 01:56:32;;;;;;;37.22;28.27;;;16.90;99.90;;;;;;5061712;28;20029;-83
2022/05/20 01:59:10;;;;;;;35.65;28.00;;;16.90;99.90;;;;;;5063491;28;20103;-83
2022/05/20 02:02:05;;;;;;;34.40;27.83;;;16.90;99.90;;;;;;5062916;28;20478;-84
2022/05/20 02:04:43;;;;;;;35.15;28.40;;;17.00;99.90;;;;;;5063126;28;20056;-83
2022/05/20 02:07:14;;;;;;;31.45;26.67;;;16.90;99.90;;;;;;5062575;28;20025;-83
2022/05/20 02:10:08;;;;;;;33.17;26.80;;;17.00;99.90;;;;;;5065008;28;20048;-83
2022/05/20 02:12:41;;;;;;;38.72;28.95;;;16.90;99.90;;;;;;5063171;28;20044;-83
2022/05/20 02:15:27;;;;;;;37.95;29.60;;;16.90;99.90;;;;;;5062562;28;20067;-83
2022/05/20 02:17:58;;;;;;;38.63;30.13;;;16.90;99.90;;;;;;5062500;28;20056;-83
2022/05/20 02:20:42;;;;;;;45.58;30.33;;;16.90;99.90;;;;;;5063921;28;20516;-82
2022/05/20 02:23:17;;;;;;;33.25;27.30;;;16.90;99.90;;;;;;5062821;28;20021;-84
2022/05/20 02:25:54;;;;;;;37.90;30.15;;;16.90;99.90;;;;;;5064528;28;20044;-84
2022/05/20 02:28:42;;;;;;;38.42;29.98;;;17.00;99.90;;;;;;5064416;28;20040;-83
2022/05/20 02:31:15;;;;;;;30.90;25.73;;;16.90;99.90;;;;;;5063891;28;20025;-83
2022/05/20 02:33:41;;;;;;;32.30;26.17;;;17.00;99.90;;;;;;5063673;28;20017;-83
2022/05/20 02:36:15;;;;;;;39.30;29.40;;;16.90;99.90;;;;;;5063290;28;20028;-83
2022/05/20 02:38:41;;;;;;;40.03;31.10;;;16.90;99.90;;;;;;5064446;28;20029;-83
2022/05/20 02:41:09;;;;;;;38.40;31.33;;;16.90;99.90;;;;;;5063966;28;20024;-83
2022/05/20 02:43:35;;;;;;;40.75;29.02;;;16.90;99.90;;;;;;5063590;28;20032;-83
2022/05/20 02:46:01;;;;;;;43.45;32.40;;;16.80;99.90;;;;;;5062885;28;20051;-83
2022/05/20 02:48:27;;;;;;;43.72;30.25;;;16.80;99.90;;;;;;5063960;28;20054;-83
2022/05/20 02:50:54;;;;;;;40.72;30.27;;;16.80;99.90;;;;;;5062329;28;20040;-83
2022/05/20 02:53:21;;;;;;;43.30;32.17;;;16.70;99.90;;;;;;5062008;28;20055;-83
2022/05/20 02:55:47;;;;;;;40.13;31.27;;;16.80;99.90;;;;;;5061698;28;20025;-83
2022/05/20 03:04:09;;;;;;;42.20;30.90;;;16.70;99.90;;;;;;5061890;28;20027;-83
2022/05/20 03:06:36;;;;;;;36.50;28.85;;;16.50;99.90;;;;;;5064388;28;20047;-83
2022/05/20 03:09:02;;;;;;;40.60;28.58;;;16.50;99.90;;;;;;5063700;28;20021;-83
2022/05/20 03:11:28;;;;;;;37.97;28.17;;;16.40;99.90;;;;;;5062518;28;20074;-83
2022/05/20 03:13:56;;;;;;;40.10;29.80;;;16.40;99.90;;;;;;5062797;28;20064;-83
2022/05/20 03:16:22;;;;;;;40.80;30.77;;;16.30;99.90;;;;;;5062896;28;20119;-83
2022/05/20 03:18:48;;;;;;;40.63;29.83;;;16.20;99.90;;;;;;5063918;28;20067;-83
2022/05/20 03:21:17;;;;;;;34.70;26.55;;;16.20;99.90;;;;;;5062303;28;20060;-83
2022/05/20 03:23:43;;;;;;;40.30;30.13;;;16.10;99.90;;;;;;5062742;28;20025;-83
2022/05/20 03:26:09;;;;;;;46.10;31.40;;;16.10;99.90;;;;;;5062507;28;20112;-85
2022/05/20 03:28:38;;;;;;;44.72;29.30;;;16.10;99.90;;;;;;5062337;28;20092;-82
2022/05/20 03:31:09;;;;;;;42.78;29.08;;;16.00;99.90;;;;;;5063326;28;20045;-83
2022/05/20 03:33:37;;;;;;;37.83;29.63;;;16.00;99.90;;;;;;5064186;28;20112;-83
2022/05/20 03:36:04;;;;;;;42.70;30.70;;;16.00;99.90;;;;;;5063303;28;20079;-83
2022/05/20 03:38:33;;;;;;;39.72;26.35;;;16.00;99.90;;;;;;5063812;28;20022;-83
2022/05/20 03:40:59;;;;;;;40.53;29.80;;;16.00;99.90;;;;;;5062987;28;20017;-83
2022/05/20 03:43:26;;;;;;;40.83;31.13;;;16.00;99.90;;;;;;5063930;28;20040;-84
2022/05/20 03:45:53;;;;;;;38.03;27.48;;;16.10;99.90;;;;;;5064653;28;20032;-83
2022/05/20 03:48:19;;;;;;;35.03;27.38;;;16.00;99.90;;;;;;5062171;28;20025;-82
2022/05/20 03:50:45;;;;;;;32.88;26.05;;;16.10;99.90;;;;;;5061316;28;20285;-83
2022/05/20 03:53:11;;;;;;;40.92;27.83;;;16.10;99.90;;;;;;5062382;28;20021;-83
2022/05/20 03:55:37;;;;;;;41.50;28.90;;;16.10;99.90;;;;;;5061785;28;20084;-83
2022/05/20 03:58:11;;;;;;;38.85;28.42;;;16.10;99.90;;;;;;5062523;28;20088;-83
2022/05/20 04:03:22;;;;;;;38.05;25.83;;;16.00;99.90;;;;;;5063712;28;20036;-83
2022/05/20 04:05:47;;;;;;;34.97;26.38;;;15.90;99.90;;;;;;5063077;28;20025;-84
2022/05/20 04:08:13;;;;;;;36.00;24.52;;;15.90;99.90;;;;;;5061707;28;20029;-83
2022/05/20 04:10:39;;;;;;;36.33;27.30;;;16.00;99.90;;;;;;5062916;28;20023;-83
2022/05/20 04:13:06;;;;;;;37.25;26.75;;;15.90;99.90;;;;;;5061104;28;20074;-83
2022/05/20 04:15:32;;;;;;;32.42;24.48;;;15.90;99.90;;;;;;5061023;28;20033;-83
2022/05/20 04:17:58;;;;;;;36.65;26.60;;;15.90;99.90;;;;;;5061176;28;20110;-83
2022/05/20 04:20:24;;;;;;;33.17;24.27;;;15.80;99.90;;;;;;5060825;28;20021;-84
2022/05/20 04:22:50;;;;;;;30.80;23.85;;;15.80;99.90;;;;;;5061358;28;20025;-84
2022/05/20 04:25:16;;;;;;;35.42;25.90;;;15.80;99.90;;;;;;5060699;28;20025;-83
2022/05/20 04:27:41;;;;;;;33.67;25.63;;;15.90;99.90;;;;;;5061707;28;20037;-84
2022/05/20 04:30:08;;;;;;;35.97;25.63;;;15.80;99.90;;;;;;5059691;28;20028;-83
2022/05/20 04:32:34;;;;;;;33.60;24.00;;;15.80;99.90;;;;;;5061434;28;20217;-83
2022/05/20 04:35:00;;;;;;;33.65;25.77;;;15.90;99.90;;;;;;5059681;28;20029;-83
2022/05/20 04:37:27;;;;;;;29.50;24.05;;;15.80;99.90;;;;;;5060762;28;20115;-83
2022/05/20 04:39:55;;;;;;;32.13;23.77;;;15.80;99.90;;;;;;5061488;28;20045;-83
2022/05/20 04:47:51;;;;;;;35.83;23.25;;;15.90;99.90;;;;;;5062984;28;20048;-83
2022/05/20 04:50:17;;;;;;;30.08;21.75;;;16.00;99.90;;;;;;5060696;28;20021;-83
2022/05/20 04:52:43;;;;;;;32.35;24.42;;;16.00;99.90;;;;;;5062248;28;20025;-83
2022/05/20 04:55:09;;;;;;;30.77;21.88;;;16.00;99.90;;;;;;5061512;28;20025;-83
2022/05/20 04:57:41;;;;;;;27.27;20.10;;;16.10;99.90;;;;;;5061728;28;20028;-83
2022/05/20 05:00:17;;;;;;;27.33;20.45;;;16.10;99.90;;;;;;5062478;28;20092;-83
2022/05/20 05:02:43;;;;;;;25.98;20.48;;;16.20;99.90;;;;;;5062123;28;20021;-83
2022/05/20 05:05:12;;;;;;;29.58;21.27;;;16.20;99.90;;;;;;5062466;28;20029;-83
2022/05/20 05:07:40;;;;;;;32.45;21.83;;;16.20;99.90;;;;;;5062210;28;20033;-83
2022/05/20 05:10:07;;;;;;;29.05;19.95;;;16.20;99.90;;;;;;5060634;28;20026;-83
2022/05/20 05:12:33;;;;;;;26.00;19.83;;;16.20;99.90;;;;;;5062607;28;20041;-83
2022/05/20 05:14:59;;;;;;;25.30;20.90;;;16.30;99.90;;;;;;5060536;28;20025;-83
2022/05/20 05:20:20;;;;;;;26.35;18.02;;;16.20;99.90;;;;;;5062161;28;20036;-83
2022/05/20 05:22:47;;;;;;;29.35;19.52;;;16.20;99.90;;;;;;5060454;28;20032;-83
2022/05/20 05:25:14;;;;;;;25.85;20.17;;;16.20;99.90;;;;;;5060140;28;20123;-83
2022/05/20 05:27:40;;;;;;;29.05;20.70;;;16.20;99.90;;;;;;5061798;28;20029;-83
2022/05/20 05:30:11;;;;;;;27.35;19.17;;;16.20;99.90;;;;;;5060901;28;20390;-83
2022/05/20 05:32:37;;;;;;;34.10;22.60;;;16.30;99.90;;;;;;5061350;28;20458;-83
2022/05/20 05:35:05;;;;;;;26.15;19.80;;;16.50;99.90;;;;;;5062287;28;20017;-83
2022/05/20 05:37:33;;;;;;;29.35;21.02;;;16.50;99.90;;;;;;5061010;28;20461;-83
2022/05/20 05:39:59;;;;;;;27.10;19.98;;;16.60;99.90;;;;;;5061836;28;20077;-83
2022/05/20 05:42:25;;;;;;;30.35;21.95;;;16.60;99.90;;;;;;5061244;28;20064;-83
2022/05/20 05:44:52;;;;;;;24.52;18.48;;;16.70;99.90;;;;;;5059906;28;20075;-83
2022/05/20 05:47:18;;;;;;;27.88;20.13;;;16.60;99.90;;;;;;5061896;28;20029;-84
2022/05/20 05:49:44;;;;;;;22.08;18.40;;;16.60;99.90;;;;;;5059773;28;20135;-83
2022/05/20 05:52:10;;;;;;;20.17;17.40;;;16.70;99.90;;;;;;5060294;28;20044;-83
2022/05/20 05:54:36;;;;;;;24.83;19.23;;;16.80;99.90;;;;;;5061183;28;20021;-83
2022/05/20 05:57:03;;;;;;;24.52;18.10;;;16.80;99.90;;;;;;5061590;28;20021;-83
2022/05/20 05:59:29;;;;;;;24.05;19.08;;;16.80;99.90;;;;;;5062258;28;20470;-83
2022/05/20 06:01:59;;;;;;;27.02;18.30;;;16.80;99.90;;;;;;5065614;28;20028;-83
2022/05/20 06:04:25;;;;;;;28.73;18.10;;;16.70;99.90;;;;;;5066144;28;20033;-83
2022/05/20 06:06:51;;;;;;;22.73;16.65;;;16.70;99.90;;;;;;5063610;28;20504;-84
2022/05/20 06:09:17;;;;;;;17.35;14.75;;;16.70;99.90;;;;;;5065493;28;20493;-82
2022/05/20 06:11:43;;;;;;;22.38;17.27;;;16.80;99.90;;;;;;5063521;28;20076;-83
2022/05/20 06:14:09;;;;;;;22.45;17.75;;;16.80;99.90;;;;;;5063639;28;20485;-83
2022/05/20 06:16:35;;;;;;;23.90;17.10;;;16.80;99.90;;;;;;5063651;28;20409;-83
2022/05/20 06:19:01;;;;;;;20.25;16.70;;;16.70;99.90;;;;;;5062254;28;20032;-83
2022/05/20 06:21:27;;;;;;;24.65;16.70;;;16.70;99.90;;;;;;5060822;28;20025;-83
2022/05/20 06:23:52;;;;;;;23.85;15.93;;;16.60;99.90;;;;;;5063067;28;20031;-82
2022/05/20 06:26:18;;;;;;;19.38;14.85;;;16.50;99.90;;;;;;5063169;28;20115;-83
2022/05/20 06:28:45;;;;;;;19.80;14.60;;;16.50;99.90;;;;;;5061842;28;20061;-83
2022/05/20 06:31:14;;;;;;;20.67;15.50;;;16.60;99.90;;;;;;5061367;28;20064;-84
2022/05/20 06:33:40;;;;;;;20.10;16.30;;;16.60;99.90;;;;;;5061612;28;20021;-82
2022/05/20 06:41:36;;;;;;;20.92;15.48;;;16.60;99.90;;;;;;5065313;28;20035;-83
2022/05/20 06:44:02;;;;;;;19.20;15.45;;;16.70;99.90;;;;;;5064332;28;20192;-83
2022/05/20 06:46:29;;;;;;;19.10;14.43;;;16.70;99.90;;;;;;5063747;28;20032;-83
2022/05/20 06:48:56;;;;;;;21.48;16.27;;;16.90;99.90;;;;;;5064162;28;20045;-83
2022/05/20 06:51:25;;;;;;;21.52;15.07;;;16.90;99.90;;;;;;5062371;28;20032;-84
2022/05/20 06:53:53;;;;;;;21.33;15.50;;;17.00;99.90;;;;;;5062633;28;20390;-83
2022/05/20 06:56:22;;;;;;;19.35;13.15;;;17.00;99.90;;;;;;5061798;28;20453;-83
2022/05/20 06:58:51;;;;;;;20.23;14.27;;;17.00;99.90;;;;;;5062468;28;20018;-83
2022/05/20 07:01:17;;;;;;;17.63;14.23;;;17.10;99.90;;;;;;5061533;28;20422;-84
2022/05/20 07:03:43;;;;;;;21.67;16.60;;;17.20;99.90;;;;;;5061753;28;20028;-83
2022/05/20 07:06:12;;;;;;;17.40;13.23;;;17.30;99.90;;;;;;5060799;28;20025;-84
2022/05/20 07:08:38;;;;;;;18.50;14.07;;;17.40;99.90;;;;;;5061517;28;20033;-84
2022/05/20 07:11:06;;;;;;;18.10;14.25;;;17.50;99.90;;;;;;5059025;28;20029;-83
2022/05/20 07:13:37;;;;;;;16.70;13.43;;;17.40;99.90;;;;;;5059578;28;20025;-84
2022/05/20 07:16:02;;;;;;;;;;;17.40;99.90;;;;;;5059586;28;20471;-82
2022/05/20 07:18:32;;;;;;;20.63;15.10;;;17.50;99.90;;;;;;5056284;28;19960;-84
2022/05/20 07:20:57;;;;;;;16.63;13.37;;;17.50;99.90;;;;;;5053862;28;20052;-83
2022/05/20 07:23:25;;;;;;;21.98;14.98;;;17.70;99.90;;;;;;5052713;28;20449;-83
2022/05/20 07:25:53;;;;;;;17.08;13.68;;;17.80;99.90;;;;;;5053937;28;20021;-83
2022/05/20 07:28:22;;;;;;;16.50;14.05;;;17.90;99.90;;;;;;5053626;28;20033;-84
2022/05/20 07:30:47;;;;;;;18.42;13.88;;;17.90;99.90;;;;;;5053346;28;20032;-84
2022/05/20 07:33:16;;;;;;;19.85;16.42;;;18.10;99.90;;;;;;5052140;28;20387;-84
2022/05/20 07:35:44;;;;;;;17.77;13.20;;;18.10;99.90;;;;;;5053773;28;20033;-83
2022/05/20 07:38:13;;;;;;;18.05;13.45;;;18.20;99.90;;;;;;5053003;28;20017;-84
2022/05/20 07:40:39;;;;;;;18.55;13.02;;;18.40;99.90;;;;;;5052412;28;20021;-84
2022/05/20 07:43:05;;;;;;;14.30;11.73;;;18.30;99.90;;;;;;5051378;28;20409;-83
2022/05/20 07:45:34;;;;;;;15.85;12.55;;;18.50;99.90;;;;;;5052214;28;20021;-84
2022/05/20 07:48:00;;;;;;;19.52;14.50;;;18.70;99.90;;;;;;5050888;28;20466;-83
2022/05/20 07:50:26;;;;;;;15.75;14.07;;;19.00;99.90;;;;;;5050565;28;20032;-84
2022/05/20 07:55:43;;;;;;;17.33;12.63;;;19.10;99.90;;;;;;5052440;28;20089;-84
2022/05/20 07:58:13;;;;;;;18.05;12.80;;;19.10;99.90;;;;;;5051231;28;20394;-84
2022/05/20 08:00:39;;;;;;;17.42;12.00;;;19.20;99.90;;;;;;5053008;28;20052;-83
2022/05/20 08:03:07;;;;;;;15.55;12.77;;;19.40;99.90;;;;;;5057161;28;20478;-83
2022/05/20 08:05:36;;;;;;;13.75;10.20;;;19.60;99.90;;;;;;5055599;28;20028;-84
2022/05/20 08:08:06;;;;;;;17.30;12.65;;;19.80;99.90;;;;;;5056210;28;20024;-83
2022/05/20 08:10:34;;;;;;;13.38;11.88;;;19.90;99.90;;;;;;5056496;28;20040;-82
2022/05/20 08:13:00;;;;;;;14.73;11.32;;;20.10;99.90;;;;;;5056347;28;20104;-83
2022/05/20 08:15:31;;;;;;;17.05;10.88;;;20.20;99.90;;;;;;5053513;28;20036;-83
2022/05/20 08:17:57;;;;;;;14.77;10.27;;;20.50;99.90;;;;;;5054193;28;20031;-83
2022/05/20 08:20:30;;;;;;;9.43;7.03;;;20.90;99.90;;;;;;5052874;28;20107;-84
2022/05/20 08:22:57;;;;;;;13.93;11.30;;;21.50;98.90;;;;;;5052221;28;20553;-84
2022/05/20 08:25:24;;;;;;;13.20;8.50;;;22.00;99.40;;;;;;5051223;28;20028;-84
2022/05/20 08:27:51;;;;;;;13.15;9.65;;;23.30;99.00;;;;;;5052486;28;20075;-84
2022/05/20 08:30:20;;;;;;;14.80;8.45;;;24.40;95.90;;;;;;5051864;28;20025;-83
2022/05/20 08:32:47;;;;;;;9.93;7.70;;;25.50;93.20;;;;;;5052889;28;20051;-84
2022/05/20 08:35:13;;;;;;;9.80;5.38;;;25.80;90.40;;;;;;5051291;28;20028;-84
2022/05/20 08:37:41;;;;;;;8.15;5.88;;;26.50;85.00;;;;;;5053400;28;20082;-84
2022/05/20 08:40:15;;;;;;;7.93;6.65;;;26.90;81.80;;;;;;5051743;28;20028;-84
2022/05/20 08:42:41;;;;;;;12.52;6.68;;;27.60;80.00;;;;;;5052144;28;20032;-84
2022/05/20 08:45:08;;;;;;;8.63;5.60;;;28.10;73.20;;;;;;5052269;28;20032;-84
2022/05/20 08:47:39;;;;;;;7.40;4.93;;;28.00;71.50;;;;;;5052377;28;20063;-84
2022/05/20 08:50:07;;;;;;;10.13;6.22;;;28.30;72.40;;;;;;5052998;28;20025;-84
2022/05/20 08:52:33;;;;;;;6.85;5.13;;;27.50;70.60;;;;;;5051155;28;20464;-81
2022/05/20 08:54:59;;;;;;;6.78;5.15;;;28.60;69.20;;;;;;5053803;28;20021;-83
2022/05/20 08:57:33;;;;;;;9.00;5.18;;;29.30;67.60;;;;;;5052890;28;20036;-83
2022/05/20 08:59:59;;;;;;;10.00;5.85;;;29.60;64.60;;;;;;5051816;28;20560;-83
2022/05/20 09:02:25;;;;;;;7.55;4.55;;;29.40;62.20;;;;;;5052695;28;20028;-83
2022/05/20 09:04:50;;;;;;;5.43;4.35;;;29.20;63.70;;;;;;5055246;28;20087;-83
2022/05/20 09:07:18;;;;;;;6.40;4.45;;;29.80;63.50;;;;;;5054916;28;20021;-83
2022/05/20 09:09:47;;;;;;;5.38;4.13;;;30.10;62.80;;;;;;5054867;28;20032;-86
2022/05/20 09:12:33;;;;;;;5.43;3.95;;;30.60;60.50;;;;;;5055699;28;20079;-83
2022/05/20 09:17:46;;;;;;;6.63;5.38;;;31.80;58.40;;;;;;5056864;28;20496;-83
2022/05/20 09:20:16;;;;;;;6.20;4.00;;;31.30;57.20;;;;;;5055971;28;20021;-83
2022/05/20 09:22:54;;;;;;;5.60;5.05;;;31.60;58.30;;;;;;5055903;28;20058;-83
2022/05/20 09:25:22;;;;;;;5.75;4.63;;;31.50;57.10;;;;;;5056560;28;20367;-83
2022/05/20 09:27:51;;;;;;;6.53;3.80;;;31.20;56.80;;;;;;5056565;28;20120;-84
2022/05/20 09:30:25;;;;;;;4.97;3.03;;;30.50;57.90;;;;;;5053874;28;20302;-83
2022/05/20 09:33:01;;;;;;;7.80;5.00;;;30.50;60.80;;;;;;5054681;28;20112;-84
2022/05/20 09:35:33;;;;;;;7.13;4.80;;;31.20;56.80;;;;;;5058724;28;20029;-84
2022/05/20 09:37:59;;;;;;;5.07;4.07;;;31.70;54.70;;;;;;5059010;28;20043;-83
2022/05/20 09:40:47;;;;;;;5.45;3.30;;;31.90;56.10;;;;;;5059805;28;20025;-83
2022/05/20 09:43:31;;;;;;;6.18;4.00;;;32.40;55.40;;;;;;5059278;28;20041;-83
2022/05/20 09:45:59;;;;;;;5.43;3.88;;;33.00;53.60;;;;;;5055288;28;20029;-83
2022/05/20 09:48:40;;;;;;;5.13;4.53;;;32.80;53.60;;;;;;5056209;28;20028;-84
2022/05/20 09:51:23;;;;;;;4.47;3.10;;;32.00;53.50;;;;;;5058883;28;20025;-83
2022/05/20 09:54:21;;;;;;;5.25;4.63;;;33.70;51.30;;;;;;5058310;28;20053;-84
2022/05/20 09:56:58;;;;;;;4.47;3.80;;;33.50;47.30;;;;;;5057841;28;20029;-84
2022/05/20 09:59:36;;;;;;;6.78;2.97;;;32.20;50.20;;;;;;5056928;28;20048;-84
2022/05/20 10:02:30;;;;;;;5.93;4.55;;;32.90;49.50;;;;;;5056536;28;20382;-83
2022/05/20 10:04:58;;;;;;;5.05;3.40;;;32.80;50.40;;;;;;5056436;28;20032;-83
2022/05/20 10:07:52;;;;;;;4.47;3.92;;;32.70;49.90;;;;;;5056422;28;20082;-83
2022/05/20 10:11:00;;;;;;;5.65;3.22;;;33.20;48.40;;;;;;5054794;28;20082;-83
2022/05/20 10:13:50;;;;;;;5.10;3.15;;;32.70;51.30;;;;;;5056069;28;20063;-83
2022/05/20 10:16:55;;;;;;;3.72;3.00;;;33.10;49.00;;;;;;5055971;28;20509;-83
2022/05/20 10:19:58;;;;;;;3.90;3.20;;;33.40;47.30;;;;;;5055469;28;20033;-83
2022/05/20 10:22:55;;;;;;;4.22;2.70;;;33.60;47.90;;;;;;5055378;28;20469;-83
2022/05/20 10:25:26;;;;;;;4.78;3.78;;;33.90;47.60;;;;;;5056195;28;20510;-82
2022/05/20 10:32:34;;;;;;;5.30;4.55;;;33.90;48.10;;;;;;5055375;28;20032;-83
2022/05/20 10:33:57;;;;;;;3.63;3.13;;;32.80;51.30;;;;;;5055325;28;20036;-83
2022/05/20 10:36:58;;;;;;;4.35;3.25;;;33.30;49.40;;;;;;5054176;28;20029;-83
2022/05/20 10:39:42;;;;;;;4.40;3.97;;;33.00;49.30;;;;;;5051858;28;20048;-83
2022/05/20 10:42:35;;;;;;;7.57;5.90;;;33.40;49.30;;;;;;5053023;28;20359;-82
2022/05/20 10:48:34;;;;;;;5.32;3.60;;;31.80;49.00;;;;;;5054041;28;20124;-83
2022/05/20 10:51:11;;;;;;;5.20;3.58;;;32.30;47.50;;;;;;5053158;28;20339;-83
2022/05/20 10:53:55;;;;;;;6.38;3.72;;;33.10;46.90;;;;;;5053187;28;20029;-83
2022/05/20 10:56:47;;;;;;;3.42;2.85;;;32.30;44.90;;;;;;5051937;28;20482;-83
2022/05/20 10:59:23;;;;;;;4.60;2.65;;;33.70;44.10;;;;;;5053233;28;20021;-83
2022/05/20 11:02:00;;;;;;;7.72;4.32;;;34.20;42.50;;;;;;5052707;28;20048;-83
2022/05/20 11:04:43;;;;;;;3.40;2.83;;;33.40;45.80;;;;;;5053439;28;20029;-84
2022/05/20 11:07:23;;;;;;;2.88;2.58;;;32.80;47.10;;;;;;5053055;28;20032;-83
2022/05/20 11:09:56;;;;;;;4.47;2.80;;;33.30;47.50;;;;;;5051176;28;20053;-84
2022/05/20 11:12:56;;;;;;;4.95;3.25;;;33.50;45.90;;;;;;5052907;28;20021;-83
2022/05/20 11:15:59;;;;;;;5.78;3.80;;;33.50;45.10;;;;;;5052481;28;20501;-83
2022/05/20 11:18:53;;;;;;;5.95;4.10;;;33.30;44.40;;;;;;5045494;28;20102;-83
2022/05/20 11:21:55;;;;;;;3.20;2.90;;;33.00;44.40;;;;;;5050788;28;20028;-83
2022/05/20 11:24:44;;;;;;;5.25;3.83;;;32.90;48.90;;;;;;5051491;28;20060;-83
2022/05/20 11:27:39;;;;;;;6.13;4.67;;;32.30;48.30;;;;;;5051509;28;20487;-83
2022/05/20 11:30:20;;;;;;;4.85;3.92;;;31.80;47.60;;;;;;5052091;28;20098;-83
2022/05/20 11:33:19;;;;;;;5.53;5.03;;;31.50;51.10;;;;;;5052523;28;20029;-83
2022/05/20 11:36:05;;;;;;;3.45;3.08;;;31.40;48.80;;;;;;5051429;28;20025;-83
2022/05/20 11:39:17;;;;;;;3.65;3.30;;;31.60;49.30;;;;;;5052430;28;20025;-83
2022/05/20 11:42:12;;;;;;;3.88;3.08;;;31.70;48.60;;;;;;5052083;28;20268;-83
2022/05/20 11:45:16;;;;;;;5.30;3.65;;;31.90;50.00;;;;;;5050985;28;20029;-83
2022/05/20 11:48:20;;;;;;;4.78;3.78;;;32.40;50.10;;;;;;5052352;28;20087;-83
2022/05/20 11:51:14;;;;;;;6.95;3.85;;;32.00;49.80;;;;;;5051300;28;20028;-83
2022/05/20 11:53:55;;;;;;;5.20;4.68;;;31.50;48.90;;;;;;5051579;28;20029;-82
2022/05/20 11:56:51;;;;;;;6.22;4.03;;;31.00;48.40;;;;;;5052510;28;20021;-83
2022/05/20 11:59:26;;;;;;;5.43;3.65;;;30.90;48.80;;;;;;5048686;28;20029;-82
2022/05/20 12:01:55;;;;;;;6.43;4.28;;;29.80;50.80;;;;;;5052467;28;20021;-83
2022/05/20 12:04:28;;;;;;;5.63;4.50;;;29.30;51.80;;;;;;5052586;28;20029;-82
2022/05/20 12:07:01;;;;;;;5.32;3.75;;;28.50;53.00;;;;;;5051289;28;20036;-83
2022/05/20 12:09:37;;;;;;;6.85;5.22;;;28.00;54.70;;;;;;5052336;28;20032;-82
2022/05/20 12:12:49;;;;;;;5.15;4.30;;;27.60;54.20;;;;;;5051150;28;20090;-82
2022/05/20 12:15:21;;;;;;;8.77;5.65;;;27.40;54.40;;;;;;5051248;28;20037;-82
2022/05/20 12:17:52;;;;;;;5.45;4.70;;;26.40;55.90;;;;;;5051234;28;20021;-82
2022/05/20 12:26:03;;;;;;;6.40;4.70;;;27.70;55.30;;;;;;5052532;28;20037;-82
2022/05/20 12:28:39;;;;;;;5.35;4.40;;;27.50;55.00;;;;;;5052532;28;20029;-83
2022/05/20 12:31:12;;;;;;;6.13;4.00;;;27.80;56.00;;;;;;5050817;28;20242;-83
2022/05/20 12:34:05;;;;;;;5.47;3.47;;;27.60;56.10;;;;;;5052154;28;20079;-82
2022/05/20 12:36:30;;;;;;;4.35;3.40;;;27.60;56.10;;;;;;5052435;28;20059;-83
2022/05/20 12:39:12;;;;;;;4.68;3.10;;;27.80;58.60;;;;;;5050814;28;20029;-82
2022/05/20 12:41:59;;;;;;;6.57;4.25;;;28.20;56.60;;;;;;5051652;28;20025;-82
2022/05/20 12:44:25;;;;;;;6.20;4.47;;;28.50;55.70;;;;;;5052228;28;20050;-82
2022/05/20 12:47:09;;;;;;;9.93;5.13;;;28.90;57.50;;;;;;5052363;28;20082;-82
2022/05/20 12:49:36;;;;;;;5.88;3.80;;;29.40;56.80;;;;;;5049452;28;20029;-83
2022/05/20 12:52:27;;;;;;;8.23;4.03;;;29.40;57.30;;;;;;5051401;28;20016;-83
2022/05/20 12:54:54;;;;;;;7.55;4.47;;;29.70;57.50;;;;;;5049533;28;20486;-83
2022/05/20 12:57:30;;;;;;;7.43;5.72;;;29.80;55.60;;;;;;5051218;28;20029;-83
2022/05/20 13:00:05;;;;;;;9.23;5.05;;;29.00;53.40;;;;;;5049205;28;20052;-83
2022/05/20 13:02:39;;;;;;;6.70;4.93;;;28.10;54.60;;;;;;5049746;28;20021;-83
2022/05/20 13:05:26;;;;;;;6.57;4.85;;;27.00;55.90;;;;;;5049910;28;20132;-83
2022/05/20 13:07:54;;;;;;;5.00;4.40;;;27.20;57.30;;;;;;5051310;28;20033;-83
2022/05/20 13:10:32;;;;;;;4.78;3.75;;;27.20;58.50;;;;;;5053093;28;20036;-83
2022/05/20 13:13:20;;;;;;;5.65;4.50;;;27.10;59.90;;;;;;5055680;28;20078;-83
2022/05/20 13:15:51;;;;;;;10.45;4.40;;;27.30;58.30;;;;;;5055451;28;20068;-83
2022/05/20 13:18:23;;;;;;;6.13;4.20;;;27.00;57.90;;;;;;5055263;28;20017;-83
2022/05/20 13:20:55;;;;;;;6.57;3.58;;;26.40;58.80;;;;;;5054760;28;20021;-83
2022/05/20 13:23:33;;;;;;;4.70;3.70;;;27.10;59.40;;;;;;5054055;28;20024;-83
2022/05/20 13:25:59;;;;;;;4.43;3.00;;;27.20;56.60;;;;;;5053882;28;20029;-83
2022/05/20 13:28:30;;;;;;;4.93;2.95;;;27.80;58.00;;;;;;5053781;28;20389;-83
2022/05/20 13:31:00;;;;;;;4.03;2.85;;;27.90;55.00;;;;;;5053152;28;20025;-83
2022/05/20 13:33:26;;;;;;;;;;;27.50;55.80;;;;;;5054145;28;20125;-83
2022/05/20 13:35:53;;;;;;;4.57;2.78;;;26.60;56.10;;;;;;5054976;28;19951;-83
2022/05/20 13:38:24;;;;;;;3.80;3.05;;;26.50;57.50;;;;;;5053641;28;20075;-83
2022/05/20 13:40:51;;;;;;;3.70;2.72;;;26.10;56.30;;;;;;5053301;28;20584;-83
2022/05/20 13:43:20;;;;;;;7.93;2.42;;;26.30;57.70;;;;;;5053515;28;20486;-83